Flight Track Log - Related Links

Times and Time Zones

All times are in EDT time to prevent confusion due to time zone crossing. See the SWA1319 flight status page for this flight to view local times or setup timezone preferences in your user account.

Time Position Orientation Groundspeed Altitude Reporting Facility
EDT Latitude Longitude Course Direction KTS MPH feet Rate Location/Type
Sat 12:40:11 AM 37.7500 -122.3500 284° West 224 258 5,400  Level Northern Cal TRACON
Sat 12:41:05 AM 37.6833 -122.3833 202° Southwest 268 308 8,200 2,507 Climbing Northern Cal TRACON
Sat 12:42:25 AM 37.5725 -122.3650 173° South 354 407 11,000 2,511 Climbing Oakland Center
Sat 12:43:26 AM 37.4997 -122.2589 131° Southeast 399 459 14,100 2,705 Climbing Oakland Center
Sat 12:44:00 AM 37.3307 -122.3624 150° Southeast  Level FlightAware Approximate
Sat 12:44:27 AM 37.4169 -122.1544 135° Southeast 424 488 16,500  Level Oakland Center
Sat 12:45:28 AM 37.3303 -122.0419 134° Southeast 445 512 19,000 2,311 Climbing Oakland Center
Sat 12:46:29 AM 37.2414 -121.9278 134° Southeast 457 526 21,200 2,115 Climbing Oakland Center
Sat 12:47:30 AM 37.1469 -121.8089 135° Southeast 475 547 23,300 1,934 Climbing Oakland Center
Sat 12:48:30 AM 37.0503 -121.6908 136° Southeast 489 563 25,100 1,587 Climbing Oakland Center
Sat 12:49:31 AM 36.9494 -121.5667 135° Southeast 506 582 26,500 1,525 Climbing Oakland Center
Sat 12:50:32 AM 36.8494 -121.4361 134° Southeast 517 595 28,200 2,213 Climbing Oakland Center
Sat 12:51:33 AM 36.7369 -121.3000 136° Southeast 509 586 31,000 2,311 Climbing Oakland Center
Sat 12:52:34 AM 36.6403 -121.1789 135° Southeast 494 568 32,900 1,525 Climbing Oakland Center
Sat 12:53:35 AM 36.5411 -121.0586 136° Southeast 495 570 34,100 1,033 Climbing Oakland Center
Sat 12:54:36 AM 36.4428 -120.9358 135° Southeast 499 574 35,000 443 Climbing Oakland Center
Sat 12:55:37 AM 36.3425 -120.8147 136° Southeast 503 579 35,000  Level Oakland Center
Sat 12:56:37 AM 36.2419 -120.6936 136° Southeast 505 581 35,000  Level Oakland Center
Sat 12:57:38 AM 36.1433 -120.5708 135° Southeast 501 577 35,000  Level Oakland Center
Sat 12:58:39 AM 36.0428 -120.4497 136° Southeast 506 582 35,000  Level Oakland Center
Sat 12:59:40 AM 35.9447 -120.3339 136° Southeast 487 560 35,000  Level Oakland Center
Sat 01:00:41 AM 35.8453 -120.2144 136° Southeast 493 567 35,000  Level Oakland Center
Sat 01:01:41 AM 35.7458 -120.0958 136° Southeast 494 568 35,000  Level Oakland Center
Sat 01:02:42 AM 35.6453 -119.9767 136° Southeast 495 570 35,000  Level Oakland Center
Sat 01:03:43 AM 35.5322 -119.8792 145° Southeast 488 562 35,000  Level Oakland Center
Sat 01:04:44 AM 35.4186 -119.7811 145° Southeast 493 567 35,000  Level Oakland Center
Sat 01:05:39 AM 35.3056 -119.6839 145° Southeast 496 571 35,000  Level Los Angeles Center
Sat 01:06:40 AM 35.1936 -119.5875 145° Southeast 493 567 35,000  Level Los Angeles Center
Sat 01:07:41 AM 35.0844 -119.4942 145° Southeast 481 554 35,000 -1,268 Level Los Angeles Center
Sat 01:08:43 AM 34.9725 -119.3994 145° Southeast 487 560 32,400 -3,024 Descending Los Angeles Center
Sat 01:09:44 AM 34.8619 -119.3050 145° Southeast 487 560 28,800 -2,951 Descending Los Angeles Center
Sat 01:10:45 AM 34.7744 -119.2311 145° Southeast 480 552 26,400 -2,902 Descending Los Angeles Center
Sat 01:11:46 AM 34.6328 -119.1139 146° Southeast 468 539 22,900 -2,976 Descending Los Angeles Center
Sat 01:12:48 AM 34.5303 -119.0267 145° Southeast 448 516 20,300 -2,488 Descending Los Angeles Center
Sat 01:13:49 AM 34.4333 -118.9456 145° Southeast 426 490 17,800 -2,459 Descending Los Angeles Center
Sat 01:14:50 AM 34.3364 -118.8717 148° Southeast 413 475 15,300 -2,390 Descending Los Angeles Center
Sat 01:15:52 AM 34.2300 -118.8350 164° South 398 458 12,900 -1,610 Descending Los Angeles Center
Sat 01:16:53 AM 34.1294 -118.7983 163° South 378 435 12,000 -1,279 Descending Los Angeles Center
Sat 01:17:54 AM 34.0356 -118.7275 148° Southeast 348 400 10,300 -984 Descending Los Angeles Center
Sat 01:18:55 AM 34.0258 -118.6225 96° East 313 360 10,000 -878 Descending Los Angeles Center
Sat 01:19:57 AM 34.0164 -118.5247 97° East 295 339 8,500 -1,463 Descending Los Angeles Center
Sat 01:20:58 AM 34.0119 -118.4328 93° East 280 322 7,000 -1,820 Descending Los Angeles Center
Sat 01:21:59 AM 34.0217 -118.3411 83° East 275 316 4,800 -1,623 Descending Los Angeles Center
Sat 01:23:00 AM 34.0189 -118.2531 92° East 277 319 3,700 -885 Descending Los Angeles Center
Sat 01:24:01 AM 33.9714 -118.2625 189° South 217 250 3,000 -976 Descending Los Angeles Center
Sat 01:25:03 AM 33.9597 -118.3203 256° West 192 221 1,700 -1,073 Descending Los Angeles Center
Sat 01:26:04 AM 33.9572 -118.3661 266° West 161 185 800 -738 Descending Los Angeles Center
Sat 01:27:05 AM 33.9519 -118.4078 261° West 141 162 200 -590 Descending Los Angeles Center
Sat 01:29:00 AM 33.9425 -118.4081 228° Southwest  Level Estimated

Login

Don't have an account? Register now (free) for customized features, flight alerts, and more!